Pagrindinis puslapis
METAR-TAF:

METAR-TAF

Oro uostai :

Rota, Ispanija

platuma: 36-39N, ilguma: 006-21W, Aukštis: 26 m

Dabartinis oras

Ataskaita buvo paskelbta 43 minutes, ne 20:00 UTC
Vėjas 5 kt iš Rytų/Pietryčių
Temperatūra 15°C
Drėgmė 72%
Slėgis 1018 hPa
Matomumas 10 km arba daugiau

METAR: LERT 282000Z AUTO 12005KT 9999 BKN027/// BKN032/// OVC038/// 15/10 Q1018

Laikas: 21:43 (20:43 UTC)

Prognozė

Ataskaita buvo paskelbta 43 minutes, ne 20:00 UTC
Prognozė galioja nuo 28 metu 21 UTC su 29 metu 06 UTC
Vėjas 7 kt iš Rytų/Pietryčių
Matomumas 10 km arba daugiau
Mažai debesys ne aukštis 3000 ft

TAF: LERT 282000Z 2821/2906 12007KT 9999 FEW030

Orai ataskaitas ir orų prognozės (METAR, TAF).

turimą stotys yra geltonos ir raudonos taškus žemėlapyje.

Perkelti pele per norėdami pamatyti stoties vardą.

Tada spustelėkite, norėdami matyti oro stebėjimo ir prognozės.

Norėdami pakeisti žemėlapį: spustelėkite ant žalios mygtukų su juodo kryžiaus žemyn,; žalią mygtuką su brūkšneliu, jei norite nutolinti; arba žalių rodyklių gretimoms žemėlapius.


METAR-TAF: